createdAt,value
2018-09-26T00:00:31.826Z,20.26
2018-09-26T00:01:31.638Z,20.26
2018-09-26T00:02:31.574Z,20.25
2018-09-26T00:03:31.768Z,20.23
2018-09-26T00:04:31.536Z,20.23
2018-09-26T00:05:31.793Z,20.23
2018-09-26T00:06:31.778Z,20.25
2018-09-26T00:07:31.374Z,20.25
2018-09-26T00:08:31.811Z,20.26
2018-09-26T00:09:31.579Z,20.26
2018-09-26T00:10:31.825Z,20.25
2018-09-26T00:11:31.527Z,20.26
2018-09-26T00:12:31.718Z,20.2
2018-09-26T00:13:31.400Z,20.23
2018-09-26T00:14:31.679Z,20.22
2018-09-26T00:15:31.970Z,20.23
2018-09-26T00:16:31.979Z,20.23
2018-09-26T00:17:31.549Z,20.25
2018-09-26T00:18:31.484Z,20.22
2018-09-26T00:19:31.865Z,20.23
2018-09-26T00:20:31.615Z,20.22
2018-09-26T00:21:31.899Z,20.22
2018-09-26T00:22:31.782Z,20.23
2018-09-26T00:23:31.815Z,20.23
2018-09-26T00:24:31.807Z,20.22
2018-09-26T00:25:31.613Z,20.22
2018-09-26T00:26:31.544Z,20.23
2018-09-26T00:27:32.155Z,20.22
2018-09-26T00:28:31.490Z,20.22
2018-09-26T00:29:31.891Z,20.22
2018-09-26T00:30:31.563Z,20.23
2018-09-26T00:31:31.788Z,20.22
2018-09-26T00:32:31.562Z,20.2
2018-09-26T00:33:31.470Z,20.22
2018-09-26T00:34:31.377Z,20.22
2018-09-26T00:35:31.753Z,20.2
2018-09-26T00:36:31.468Z,20.2
2018-09-26T00:37:31.337Z,20.22
2018-09-26T00:38:31.688Z,20.19
2018-09-26T00:39:31.843Z,20.19
2018-09-26T00:40:31.663Z,20.22
2018-09-26T00:41:31.357Z,20.22
2018-09-26T00:42:31.385Z,20.19
2018-09-26T00:43:31.548Z,20.18
2018-09-26T00:44:31.733Z,20.19
2018-09-26T00:45:31.557Z,20.19
2018-09-26T00:46:31.650Z,20.18
2018-09-26T00:47:31.755Z,20.18
2018-09-26T00:48:31.621Z,20.19
2018-09-26T00:49:31.420Z,20.2
2018-09-26T00:50:31.755Z,20.2
2018-09-26T00:51:31.494Z,20.18
2018-09-26T00:52:31.493Z,20.18
2018-09-26T00:53:31.429Z,20.16
2018-09-26T00:54:31.482Z,20.16
2018-09-26T00:55:31.549Z,20.19
2018-09-26T00:56:31.510Z,20.22
2018-09-26T00:57:31.436Z,20.2
2018-09-26T00:58:31.442Z,20.2
2018-09-26T00:59:31.387Z,20.19
2018-09-26T01:00:31.589Z,20.2
2018-09-26T01:01:31.573Z,20.19
2018-09-26T01:02:31.474Z,20.19
2018-09-26T01:03:31.607Z,20.19
2018-09-26T01:04:31.642Z,20.2
2018-09-26T01:05:31.450Z,20.18
2018-09-26T01:06:31.552Z,20.19
2018-09-26T01:07:31.471Z,20.19
2018-09-26T01:08:31.708Z,20.19
2018-09-26T01:09:31.434Z,20.16
2018-09-26T01:10:31.480Z,20.16
2018-09-26T01:11:31.944Z,20.19
2018-09-26T01:12:31.840Z,20.2
2018-09-26T01:13:31.906Z,20.19
2018-09-26T01:14:31.571Z,20.19
2018-09-26T01:15:31.890Z,20.18
2018-09-26T01:16:31.446Z,20.19
2018-09-26T01:17:31.803Z,20.2
2018-09-26T01:18:32.005Z,20.16
2018-09-26T01:19:31.894Z,20.16
2018-09-26T01:20:31.621Z,20.15
2018-09-26T01:21:31.809Z,20.16
2018-09-26T01:22:31.832Z,20.16
2018-09-26T01:23:31.853Z,20.18
2018-09-26T01:24:31.834Z,20.16
2018-09-26T01:25:31.624Z,20.19
2018-09-26T01:26:31.479Z,20.16
2018-09-26T01:27:31.873Z,20.16
2018-09-26T01:28:31.632Z,20.16
2018-09-26T01:29:31.888Z,20.16
2018-09-26T01:30:31.905Z,20.16
2018-09-26T01:31:31.669Z,20.16
2018-09-26T01:32:31.406Z,20.18
2018-09-26T01:33:31.902Z,20.15
2018-09-26T01:34:31.530Z,20.15
2018-09-26T01:35:31.551Z,20.18
2018-09-26T01:36:31.540Z,20.16
2018-09-26T01:37:31.502Z,20.16
2018-09-26T01:38:31.561Z,20.16
2018-09-26T01:39:31.525Z,20.16
2018-09-26T01:40:31.542Z,20.15
2018-09-26T01:41:32.783Z,20.16
2018-09-26T01:42:31.544Z,20.16
2018-09-26T01:43:31.691Z,20.13
2018-09-26T01:44:32.022Z,20.16
2018-09-26T01:45:31.780Z,20.15
2018-09-26T01:46:31.466Z,20.18
2018-09-26T01:47:31.432Z,20.16
2018-09-26T01:48:31.524Z,20.16
2018-09-26T01:49:31.457Z,20.15
2018-09-26T01:50:31.797Z,20.16
2018-09-26T01:51:31.801Z,20.18
2018-09-26T01:52:31.402Z,20.18
2018-09-26T01:53:31.681Z,20.16
2018-09-26T01:54:31.647Z,20.15
2018-09-26T01:55:31.637Z,20.15
2018-09-26T01:56:31.884Z,20.15
2018-09-26T01:57:31.933Z,20.13
2018-09-26T01:58:31.387Z,20.15
2018-09-26T01:59:31.416Z,20.13
2018-09-26T02:00:31.804Z,20.13
2018-09-26T02:01:32.105Z,20.15
2018-09-26T02:02:31.600Z,20.15
2018-09-26T02:03:31.722Z,20.12
2018-09-26T02:04:31.505Z,20.12
2018-09-26T02:05:31.470Z,20.12
2018-09-26T02:06:31.575Z,20.13
2018-09-26T02:07:31.421Z,20.13
2018-09-26T02:08:31.636Z,20.13
2018-09-26T02:09:31.664Z,20.13
2018-09-26T02:10:31.388Z,20.13
2018-09-26T02:11:31.416Z,20.13
2018-09-26T02:12:31.417Z,20.13
2018-09-26T02:13:31.484Z,20.13
2018-09-26T02:14:31.347Z,20.12
2018-09-26T02:15:31.438Z,20.12
2018-09-26T02:16:31.363Z,20.12
2018-09-26T02:17:31.723Z,20.12
2018-09-26T02:18:31.577Z,20.13
2018-09-26T02:19:32.016Z,20.12
2018-09-26T02:20:31.721Z,20.12
2018-09-26T02:21:31.471Z,20.13
2018-09-26T02:22:31.484Z,20.13
2018-09-26T02:23:32.021Z,20.12
2018-09-26T02:24:31.570Z,20.12
2018-09-26T02:25:31.553Z,20.12
2018-09-26T02:26:31.612Z,20.12
2018-09-26T02:27:31.582Z,20.11
2018-09-26T02:28:31.856Z,20.11
2018-09-26T02:29:31.581Z,20.13
2018-09-26T02:30:31.817Z,20.11
2018-09-26T02:31:31.441Z,20.12
2018-09-26T02:32:31.438Z,20.08
2018-09-26T02:33:31.779Z,20.09
2018-09-26T02:34:31.470Z,20.12
2018-09-26T02:35:31.461Z,20.13
2018-09-26T02:36:31.753Z,20.12
2018-09-26T02:37:31.544Z,20.09
2018-09-26T02:38:31.461Z,20.09
2018-09-26T02:39:31.766Z,20.09
2018-09-26T02:40:31.810Z,20.08
2018-09-26T02:41:31.911Z,20.08
2018-09-26T02:42:31.624Z,20.08
2018-09-26T02:43:31.432Z,20.08
2018-09-26T02:44:31.417Z,20.07
2018-09-26T02:45:31.621Z,20.09
2018-09-26T02:46:31.623Z,20.11
2018-09-26T02:47:31.458Z,20.09
2018-09-26T02:48:31.630Z,20.11
2018-09-26T02:49:31.369Z,20.11
2018-09-26T02:50:31.514Z,20.11
2018-09-26T02:51:31.347Z,20.12
2018-09-26T02:52:32.505Z,20.12
2018-09-26T02:53:31.547Z,20.11
2018-09-26T02:54:31.537Z,20.11
2018-09-26T02:55:31.757Z,20.09
2018-09-26T02:56:31.563Z,20.09
2018-09-26T02:57:31.349Z,20.09
2018-09-26T02:58:31.646Z,20.11
2018-09-26T02:59:31.448Z,20.11
2018-09-26T03:00:31.554Z,20.11
2018-09-26T03:01:31.895Z,20.09
2018-09-26T03:02:31.300Z,20.11
2018-09-26T03:03:31.524Z,20.09
2018-09-26T03:04:31.583Z,20.08
2018-09-26T03:05:31.564Z,20.11
2018-09-26T03:06:31.656Z,20.09
2018-09-26T03:07:31.528Z,20.08
2018-09-26T03:08:31.897Z,20.08
2018-09-26T03:09:31.397Z,20.09
2018-09-26T03:10:31.863Z,20.08
2018-09-26T03:11:31.771Z,20.08
2018-09-26T03:12:31.343Z,20.07
2018-09-26T03:13:31.897Z,20.05
2018-09-26T03:14:31.482Z,20.07
2018-09-26T03:15:31.893Z,20.08
2018-09-26T03:16:31.636Z,20.09
2018-09-26T03:17:32.438Z,20.09
2018-09-26T03:18:31.524Z,20.07
2018-09-26T03:19:32.130Z,20.05
2018-09-26T03:20:31.391Z,20.05
2018-09-26T03:21:31.337Z,20.05
2018-09-26T03:22:31.861Z,20.08
2018-09-26T03:23:31.484Z,20.07
2018-09-26T03:24:31.705Z,20.07
2018-09-26T03:25:31.415Z,20.07
2018-09-26T03:26:31.486Z,20.05
2018-09-26T03:27:31.441Z,20.07
2018-09-26T03:28:31.397Z,20.08
2018-09-26T03:29:31.425Z,20.08
2018-09-26T03:30:31.576Z,20.09
2018-09-26T03:31:31.453Z,20.08
2018-09-26T03:32:31.396Z,20.09
2018-09-26T03:33:32.093Z,20.07
2018-09-26T03:34:31.259Z,20.09
2018-09-26T03:35:31.494Z,20.08
2018-09-26T03:36:31.565Z,20.08
2018-09-26T03:37:31.433Z,20.04
2018-09-26T03:38:31.514Z,20.04
2018-09-26T03:39:31.632Z,20.07
2018-09-26T03:40:31.303Z,20.05
2018-09-26T03:41:31.394Z,20.08
2018-09-26T03:42:31.790Z,20.07
2018-09-26T03:43:31.318Z,20.05
2018-09-26T03:44:31.924Z,20.05
2018-09-26T03:45:31.818Z,20.05
2018-09-26T03:46:31.519Z,20.07
2018-09-26T03:47:31.908Z,20.07
2018-09-26T03:48:31.791Z,20.04
2018-09-26T03:49:31.491Z,20.05
2018-09-26T03:50:31.584Z,20.04
2018-09-26T03:51:31.508Z,20.04
2018-09-26T03:52:31.509Z,20.07
2018-09-26T03:53:31.435Z,20.05
2018-09-26T03:54:31.595Z,20.04
2018-09-26T03:55:31.686Z,20.04
2018-09-26T03:56:31.370Z,20.02
2018-09-26T03:57:31.957Z,20.02
2018-09-26T03:58:31.666Z,20.04
2018-09-26T03:59:31.889Z,20.04
2018-09-26T04:00:31.451Z,20.04
2018-09-26T04:01:31.448Z,20.04
2018-09-26T04:02:31.543Z,20.04
2018-09-26T04:03:31.667Z,20.04
2018-09-26T04:04:31.576Z,20.02
2018-09-26T04:05:31.405Z,20.04
2018-09-26T04:06:31.475Z,20.02
2018-09-26T04:07:31.874Z,20.04
2018-09-26T04:08:31.401Z,20.07
2018-09-26T04:09:31.513Z,20.04
2018-09-26T04:10:31.442Z,20.04
2018-09-26T04:11:31.669Z,20.02
2018-09-26T04:12:32.214Z,20.04
2018-09-26T04:13:31.459Z,20.07
2018-09-26T04:14:31.487Z,20.05
2018-09-26T04:15:32.324Z,20.04
2018-09-26T04:16:31.765Z,20.02
2018-09-26T04:17:31.554Z,20.01
2018-09-26T04:18:31.366Z,20.05
2018-09-26T04:19:31.806Z,20.04
2018-09-26T04:20:32.590Z,20.04
2018-09-26T04:21:31.958Z,20.01
2018-09-26T04:22:31.365Z,20.02
2018-09-26T04:23:31.529Z,19.99
2018-09-26T04:24:31.692Z,20.02
2018-09-26T04:25:31.460Z,20.02
2018-09-26T04:26:33.646Z,20.01
2018-09-26T04:27:33.612Z,20.02
2018-09-26T04:28:31.593Z,20.01
2018-09-26T04:29:31.681Z,20.02
2018-09-26T04:30:33.094Z,20.02
2018-09-26T04:31:31.695Z,20.01
2018-09-26T04:32:32.159Z,20.04
2018-09-26T04:33:32.812Z,20.02
2018-09-26T04:34:31.863Z,20.02
2018-09-26T04:35:31.583Z,20.02
2018-09-26T04:36:31.559Z,20.02
2018-09-26T04:37:31.343Z,20.02
2018-09-26T04:38:32.472Z,20.02
2018-09-26T04:39:31.824Z,20.02
2018-09-26T04:40:31.598Z,20.01
2018-09-26T04:41:31.841Z,20.02
2018-09-26T04:42:31.312Z,20.02
2018-09-26T04:43:31.393Z,20.01
2018-09-26T04:44:31.449Z,20.01
2018-09-26T04:45:31.462Z,20.01
2018-09-26T04:46:31.446Z,20.02
2018-09-26T04:47:31.380Z,20.04
2018-09-26T04:48:31.346Z,20.02
2018-09-26T04:49:31.561Z,20.04
2018-09-26T04:50:31.314Z,20.02
2018-09-26T04:51:31.378Z,20.04
2018-09-26T04:52:31.430Z,20.02
2018-09-26T04:53:31.323Z,20.01
2018-09-26T04:54:31.526Z,20.04
2018-09-26T04:55:31.535Z,20.01
2018-09-26T04:56:31.459Z,20.04
2018-09-26T04:57:31.294Z,20.05
2018-09-26T04:58:31.315Z,20.04
2018-09-26T04:59:31.324Z,20.04
2018-09-26T05:00:31.282Z,20.04
2018-09-26T05:01:31.397Z,20.04
2018-09-26T05:02:31.442Z,20.01
2018-09-26T05:03:31.325Z,20.02
2018-09-26T05:04:31.320Z,20.02
2018-09-26T05:05:31.630Z,20.01
2018-09-26T05:06:31.275Z,20.01
2018-09-26T05:07:31.299Z,20.02
2018-09-26T05:08:31.304Z,20.04
2018-09-26T05:09:31.360Z,19.99
2018-09-26T05:10:31.522Z,20.01
2018-09-26T05:11:31.579Z,19.98
2018-09-26T05:12:31.457Z,20.02
2018-09-26T05:13:31.527Z,20.01
2018-09-26T05:14:31.657Z,20.01
2018-09-26T05:15:31.455Z,20.01
2018-09-26T05:16:31.520Z,20.01
2018-09-26T05:17:31.899Z,20.02
2018-09-26T05:18:31.398Z,20.02
2018-09-26T05:19:31.489Z,20.01
2018-09-26T05:20:31.460Z,19.98
2018-09-26T05:21:31.805Z,20.01
2018-09-26T05:22:31.565Z,19.99
2018-09-26T05:23:31.393Z,20.02
2018-09-26T05:24:31.386Z,20.02
2018-09-26T05:25:31.726Z,19.99
2018-09-26T05:26:31.550Z,20.01
2018-09-26T05:27:31.375Z,19.99
2018-09-26T05:28:31.733Z,20.01
2018-09-26T05:29:31.367Z,20.02
2018-09-26T05:30:32.467Z,20.04
2018-09-26T05:31:31.547Z,19.99
2018-09-26T05:32:31.885Z,20.01
2018-09-26T05:33:31.855Z,19.99
2018-09-26T05:34:31.426Z,20.01
2018-09-26T05:35:31.707Z,20.01
2018-09-26T05:36:31.474Z,20.01
2018-09-26T05:37:31.282Z,19.99
2018-09-26T05:38:31.626Z,20.02
2018-09-26T05:39:31.918Z,20.01
2018-09-26T05:40:31.531Z,20.02
2018-09-26T05:41:31.957Z,20.01
2018-09-26T05:42:31.353Z,20.01
2018-09-26T05:43:31.549Z,20.01
2018-09-26T05:44:31.658Z,20.01
2018-09-26T05:45:31.989Z,20.02
2018-09-26T05:46:31.327Z,19.99
2018-09-26T05:47:31.925Z,20.01
2018-09-26T05:48:31.440Z,20.01
2018-09-26T05:49:31.339Z,20.01
2018-09-26T05:50:31.563Z,19.99
2018-09-26T05:51:31.399Z,20.01
2018-09-26T05:52:31.386Z,19.99
2018-09-26T05:53:32.506Z,20.02
2018-09-26T05:54:31.428Z,20.01
2018-09-26T05:55:31.390Z,19.99
2018-09-26T05:56:31.683Z,20.01
2018-09-26T05:57:31.366Z,19.99
2018-09-26T05:58:31.722Z,19.98
2018-09-26T05:59:31.984Z,19.99
2018-09-26T06:00:31.454Z,19.96
2018-09-26T06:01:31.719Z,20.01
2018-09-26T06:02:31.315Z,20.01
2018-09-26T06:03:31.393Z,19.99
2018-09-26T06:04:31.789Z,19.98
2018-09-26T06:05:32.780Z,20.01
2018-09-26T06:06:31.422Z,19.98
2018-09-26T06:07:31.394Z,19.98
2018-09-26T06:08:31.359Z,19.99
2018-09-26T06:09:31.516Z,19.96
2018-09-26T06:10:31.487Z,19.96
2018-09-26T06:11:31.503Z,19.98
2018-09-26T06:12:31.405Z,19.99
2018-09-26T06:13:31.476Z,19.96
2018-09-26T06:14:31.265Z,19.98
2018-09-26T06:15:31.819Z,20.01
2018-09-26T06:16:31.277Z,19.99
2018-09-26T06:17:31.342Z,20.01
2018-09-26T06:18:31.416Z,20.01
2018-09-26T06:19:31.777Z,20.01
2018-09-26T06:20:31.364Z,20.01
2018-09-26T06:21:31.293Z,19.99
2018-09-26T06:22:31.532Z,19.98
2018-09-26T06:23:31.222Z,19.99
2018-09-26T06:24:31.896Z,20.01
2018-09-26T06:25:31.321Z,20.02
2018-09-26T06:26:31.621Z,19.99
2018-09-26T06:27:31.881Z,19.99
2018-09-26T06:28:31.223Z,19.99
2018-09-26T06:29:31.562Z,19.99
2018-09-26T06:30:31.396Z,20.01
2018-09-26T06:31:31.468Z,19.95
2018-09-26T06:32:31.820Z,19.98
2018-09-26T06:33:31.394Z,20.01
2018-09-26T06:34:31.486Z,19.99
2018-09-26T06:35:31.446Z,20.01
2018-09-26T06:36:31.468Z,19.99
2018-09-26T06:37:31.389Z,20.01
2018-09-26T06:38:31.517Z,20.01
2018-09-26T06:39:31.946Z,19.99
2018-09-26T06:40:32.767Z,19.98
2018-09-26T06:41:31.283Z,19.98
2018-09-26T06:42:32.374Z,19.98
2018-09-26T06:43:31.601Z,19.98
2018-09-26T06:44:32.288Z,20.01
2018-09-26T06:45:31.588Z,19.99
2018-09-26T06:46:31.418Z,19.99
2018-09-26T06:47:32.458Z,19.96
2018-09-26T06:48:31.390Z,19.98
2018-09-26T06:49:31.291Z,19.98
2018-09-26T06:50:31.430Z,19.98
2018-09-26T06:51:31.563Z,19.99
2018-09-26T06:52:31.504Z,20.01
2018-09-26T06:53:31.477Z,20.01
2018-09-26T06:54:31.482Z,19.99
2018-09-26T06:55:31.497Z,19.99
2018-09-26T06:56:31.367Z,19.98
2018-09-26T06:57:31.530Z,19.98
2018-09-26T06:58:31.824Z,19.96
2018-09-26T06:59:31.242Z,19.99
2018-09-26T07:00:31.215Z,19.99
2018-09-26T07:01:31.436Z,19.99
2018-09-26T07:02:31.362Z,19.98
2018-09-26T07:03:31.344Z,20.01
2018-09-26T07:04:31.319Z,19.96
2018-09-26T07:05:31.776Z,19.96
2018-09-26T07:06:31.829Z,19.99
2018-09-26T07:07:31.258Z,19.98
2018-09-26T07:08:31.718Z,19.99
2018-09-26T07:09:31.403Z,19.98
2018-09-26T07:10:31.311Z,19.96
2018-09-26T07:11:31.568Z,19.98
2018-09-26T07:12:31.498Z,20.01
2018-09-26T07:13:31.583Z,19.99
2018-09-26T07:14:31.350Z,20.01
2018-09-26T07:15:31.266Z,19.98
2018-09-26T07:16:31.465Z,19.98
2018-09-26T07:17:31.564Z,20.01
2018-09-26T07:18:31.342Z,20.01
2018-09-26T07:19:31.508Z,19.96
2018-09-26T07:20:31.317Z,19.99
2018-09-26T07:21:31.390Z,19.99
2018-09-26T07:22:31.432Z,19.98
2018-09-26T07:23:31.427Z,19.99
2018-09-26T07:24:31.383Z,19.99
2018-09-26T07:25:31.646Z,19.99
2018-09-26T07:26:31.346Z,19.99
2018-09-26T07:27:31.720Z,19.99
2018-09-26T07:28:31.573Z,19.98
2018-09-26T07:29:31.426Z,19.96
2018-09-26T07:30:31.328Z,19.98
2018-09-26T07:31:32.888Z,19.95
2018-09-26T07:32:31.597Z,19.96
2018-09-26T07:33:31.456Z,19.96
2018-09-26T07:34:31.364Z,19.98
2018-09-26T07:35:31.333Z,20.02
2018-09-26T07:36:31.532Z,20.04
2018-09-26T07:37:31.341Z,20.01
2018-09-26T07:38:32.640Z,19.99
2018-09-26T07:39:31.214Z,20.02
2018-09-26T07:40:31.400Z,20.02
2018-09-26T07:41:31.427Z,20.05
2018-09-26T07:42:31.531Z,20.05
2018-09-26T07:43:31.389Z,19.99
2018-09-26T07:44:31.366Z,20.02
2018-09-26T07:45:32.734Z,20.07
2018-09-26T07:46:31.492Z,20.08
2018-09-26T07:47:31.259Z,20.04
2018-09-26T07:48:31.441Z,19.99
2018-09-26T07:49:31.315Z,20.02
2018-09-26T07:50:31.339Z,20.02
2018-09-26T07:51:31.655Z,20.07
2018-09-26T07:52:31.646Z,20.05
2018-09-26T07:53:31.471Z,20.07
2018-09-26T07:54:31.399Z,20.09
2018-09-26T07:55:31.353Z,20.09
2018-09-26T07:56:31.590Z,20.07
2018-09-26T07:57:31.363Z,20.07
2018-09-26T07:58:31.470Z,20.09
2018-09-26T07:59:31.637Z,20.09
2018-09-26T08:00:31.494Z,20.09
2018-09-26T08:01:31.393Z,20.12
2018-09-26T08:02:31.526Z,20.11
2018-09-26T08:03:31.512Z,20.09
2018-09-26T08:04:31.475Z,20.07
2018-09-26T08:05:31.620Z,20.11
2018-09-26T08:06:31.469Z,20.11
2018-09-26T08:07:31.651Z,20.13
2018-09-26T08:08:31.412Z,20.13
2018-09-26T08:09:31.559Z,20.15
2018-09-26T08:10:31.475Z,20.13
2018-09-26T08:11:31.755Z,20.18
2018-09-26T08:12:31.213Z,20.15
2018-09-26T08:13:31.395Z,20.13
2018-09-26T08:14:31.318Z,20.15
2018-09-26T08:15:31.812Z,20.15
2018-09-26T08:16:31.337Z,20.19
2018-09-26T08:17:31.686Z,20.2
2018-09-26T08:18:32.165Z,20.2
2018-09-26T08:19:31.325Z,20.22
2018-09-26T08:20:31.538Z,20.22
2018-09-26T08:21:31.426Z,20.23
2018-09-26T08:22:31.394Z,20.23
2018-09-26T08:23:31.506Z,20.26
2018-09-26T08:24:31.491Z,20.26
2018-09-26T08:25:31.588Z,20.29
2018-09-26T08:26:31.454Z,20.29
2018-09-26T08:27:31.504Z,20.3
2018-09-26T08:28:31.595Z,20.32
2018-09-26T08:29:31.472Z,20.32
2018-09-26T08:30:31.405Z,20.32
2018-09-26T08:31:31.536Z,20.3
2018-09-26T08:32:31.363Z,20.33
2018-09-26T08:33:32.301Z,20.36
2018-09-26T08:34:31.473Z,20.35
2018-09-26T08:35:31.485Z,20.35
2018-09-26T08:36:31.496Z,20.36
2018-09-26T08:37:32.015Z,20.37
2018-09-26T08:38:31.629Z,20.33
2018-09-26T08:39:31.385Z,20.37
2018-09-26T08:40:31.667Z,20.36
2018-09-26T08:41:31.576Z,20.37
2018-09-26T08:42:31.504Z,20.36
2018-09-26T08:43:31.265Z,20.39
2018-09-26T08:44:32.263Z,20.37
2018-09-26T08:45:31.489Z,20.4
2018-09-26T08:46:31.513Z,20.4
2018-09-26T08:47:31.262Z,20.42
2018-09-26T08:48:31.603Z,20.43
2018-09-26T08:49:31.800Z,20.43
2018-09-26T08:50:31.447Z,20.43
2018-09-26T08:51:32.502Z,20.43
2018-09-26T08:52:31.408Z,20.43
2018-09-26T08:53:31.391Z,20.42
2018-09-26T08:54:31.850Z,20.42
2018-09-26T08:55:31.436Z,20.43
2018-09-26T08:56:31.334Z,20.46
2018-09-26T08:57:31.325Z,20.44
2018-09-26T08:58:31.337Z,20.44
2018-09-26T08:59:31.820Z,20.47
2018-09-26T09:00:31.436Z,20.44
2018-09-26T09:01:31.233Z,20.43
2018-09-26T09:02:31.383Z,20.43
2018-09-26T09:03:31.471Z,20.46
2018-09-26T09:04:31.336Z,20.47
2018-09-26T09:05:31.199Z,20.44
2018-09-26T09:06:31.206Z,20.46
2018-09-26T09:07:31.425Z,20.44
2018-09-26T09:08:00.474Z,20.46
2018-09-26T09:09:00.221Z,20.44
2018-09-26T09:10:00.369Z,20.44
2018-09-26T09:11:00.298Z,20.44
2018-09-26T09:12:00.343Z,20.4
2018-09-26T09:13:00.326Z,20.42
2018-09-26T09:14:00.335Z,20.4
2018-09-26T09:15:00.384Z,20.42
2018-09-26T09:16:01.400Z,20.42
2018-09-26T09:17:00.251Z,20.42
2018-09-26T09:18:00.220Z,20.42
2018-09-26T09:19:00.641Z,20.42
2018-09-26T09:20:00.478Z,20.4
2018-09-26T09:21:00.562Z,20.39
2018-09-26T09:22:00.890Z,20.42
2018-09-26T09:23:00.111Z,20.42
2018-09-26T09:24:00.166Z,20.42
2018-09-26T09:25:00.843Z,20.42
2018-09-26T09:26:00.319Z,20.43
2018-09-26T09:27:01.490Z,20.42
2018-09-26T09:28:00.306Z,20.42
2018-09-26T09:29:00.765Z,20.4
2018-09-26T09:30:01.177Z,20.4
2018-09-26T09:31:00.434Z,20.4
2018-09-26T09:32:00.560Z,20.37
2018-09-26T09:33:00.581Z,20.39
2018-09-26T09:34:00.478Z,20.37
2018-09-26T09:35:00.808Z,20.35
2018-09-26T09:36:00.389Z,20.36
2018-09-26T09:37:00.405Z,20.35
2018-09-26T09:38:00.608Z,20.36
2018-09-26T09:39:00.488Z,20.33
2018-09-26T09:40:00.494Z,20.33
2018-09-26T09:41:00.851Z,20.33
2018-09-26T09:42:00.471Z,20.3
2018-09-26T09:43:00.621Z,20.3
2018-09-26T09:44:01.522Z,20.32
2018-09-26T09:45:00.354Z,20.32
2018-09-26T09:46:00.436Z,20.32
2018-09-26T09:47:00.337Z,20.32
2018-09-26T09:48:00.362Z,20.3
2018-09-26T09:49:00.674Z,20.3
2018-09-26T09:50:00.459Z,20.32
2018-09-26T09:51:00.815Z,20.3
2018-09-26T09:52:00.470Z,20.29
2018-09-26T09:53:00.443Z,20.27
2018-09-26T09:54:00.146Z,20.27
2018-09-26T09:55:00.175Z,20.29
2018-09-26T09:56:07.955Z,20.3
2018-09-26T09:57:12.976Z,20.19
2018-09-26T09:58:12.682Z,20.12
2018-09-26T09:59:12.713Z,20.11
2018-09-26T10:00:12.507Z,20.08
2018-09-26T10:01:12.699Z,20.05
2018-09-26T10:02:12.912Z,20.08
2018-09-26T10:03:12.876Z,20.07
2018-09-26T10:04:12.756Z,20.02
2018-09-26T10:05:13.123Z,20.04
2018-09-26T10:06:19.988Z,20.07
2018-09-26T10:07:19.449Z,20.18
2018-09-26T10:08:20.456Z,20.22
2018-09-26T10:09:19.305Z,20.25
2018-09-26T10:10:19.313Z,20.29
2018-09-26T10:11:19.307Z,20.27
2018-09-26T10:12:19.280Z,20.29
2018-09-26T10:13:19.953Z,20.32
2018-09-26T10:14:20.720Z,20.33
2018-09-26T10:15:19.155Z,20.32
2018-09-26T10:16:19.414Z,20.29
2018-09-26T10:17:19.470Z,20.32
2018-09-26T10:18:19.473Z,20.3
2018-09-26T10:19:19.314Z,20.32
2018-09-26T10:20:20.276Z,20.29
2018-09-26T10:21:19.490Z,20.29
2018-09-26T10:22:19.733Z,20.3
2018-09-26T10:23:19.479Z,20.33
2018-09-26T10:24:19.490Z,20.33
2018-09-26T10:25:19.814Z,20.29
2018-09-26T10:26:20.167Z,20.33
2018-09-26T10:27:19.354Z,20.33
2018-09-26T10:28:19.680Z,20.35
2018-09-26T10:29:19.367Z,20.36
2018-09-26T10:30:19.386Z,20.37
2018-09-26T10:31:19.262Z,20.37
2018-09-26T10:32:20.502Z,20.4
2018-09-26T10:33:19.471Z,20.36
2018-09-26T10:34:19.339Z,20.37
2018-09-26T10:35:19.554Z,20.4
2018-09-26T10:36:19.265Z,20.39
2018-09-26T10:37:19.842Z,20.36
2018-09-26T10:38:20.409Z,20.39
2018-09-26T10:39:19.273Z,20.39
2018-09-26T10:40:19.248Z,20.36
2018-09-26T10:41:19.488Z,20.37
2018-09-26T10:42:19.734Z,20.39
2018-09-26T10:43:19.828Z,20.39
2018-09-26T10:44:19.936Z,20.37
2018-09-26T10:45:19.512Z,20.36
2018-09-26T10:46:19.476Z,20.35
2018-09-26T10:47:19.641Z,20.36
2018-09-26T10:48:19.306Z,20.35
2018-09-26T10:49:19.313Z,20.33
2018-09-26T10:50:20.093Z,20.36
2018-09-26T10:51:19.480Z,20.33
2018-09-26T10:52:19.257Z,20.3
2018-09-26T10:53:19.682Z,20.3
2018-09-26T10:54:19.347Z,20.33
2018-09-26T10:55:19.764Z,20.35
2018-09-26T10:56:20.652Z,20.3
2018-09-26T10:57:19.515Z,20.33
2018-09-26T10:58:19.448Z,20.32
2018-09-26T10:59:19.236Z,20.29
2018-09-26T11:00:19.351Z,20.3
2018-09-26T11:01:19.537Z,20.3
2018-09-26T11:02:20.202Z,20.3
2018-09-26T11:03:19.248Z,20.35
2018-09-26T11:04:20.332Z,20.32
2018-09-26T11:05:19.190Z,20.3
2018-09-26T11:06:19.490Z,20.33
2018-09-26T11:07:19.431Z,20.35
2018-09-26T11:08:19.947Z,20.35
2018-09-26T11:09:19.357Z,20.36
2018-09-26T11:10:20.067Z,20.33
2018-09-26T11:11:19.362Z,20.33
2018-09-26T11:12:19.436Z,20.35
2018-09-26T11:13:19.251Z,20.35
2018-09-26T11:14:19.986Z,20.37
2018-09-26T11:15:20.468Z,20.37
2018-09-26T11:16:20.185Z,20.36
2018-09-26T11:17:19.243Z,20.36
2018-09-26T11:18:19.456Z,20.39
2018-09-26T11:19:19.343Z,20.37
2018-09-26T11:20:20.860Z,20.39
2018-09-26T11:21:20.136Z,20.39
2018-09-26T11:22:20.651Z,20.42
2018-09-26T11:23:19.724Z,20.42
2018-09-26T11:24:19.355Z,20.44
2018-09-26T11:25:19.457Z,20.44
2018-09-26T11:26:21.238Z,20.44
2018-09-26T11:27:19.331Z,20.44
2018-09-26T11:28:20.474Z,20.44
2018-09-26T11:29:19.383Z,20.46
2018-09-26T11:30:19.355Z,20.46
2018-09-26T11:31:19.464Z,20.43
2018-09-26T11:32:20.343Z,20.48
2018-09-26T11:33:20.345Z,20.46
2018-09-26T11:34:20.273Z,20.46
2018-09-26T11:35:19.303Z,20.46
2018-09-26T11:36:19.399Z,20.46
2018-09-26T11:37:19.219Z,20.48
2018-09-26T11:38:20.767Z,20.48
2018-09-26T11:39:19.468Z,20.47
2018-09-26T11:40:20.035Z,20.46
2018-09-26T11:41:19.184Z,20.43
2018-09-26T11:42:19.211Z,20.43
2018-09-26T11:43:19.280Z,20.43
2018-09-26T11:44:20.577Z,20.44
2018-09-26T11:45:19.542Z,20.42
2018-09-26T11:46:20.510Z,20.42
2018-09-26T11:47:19.698Z,20.4
2018-09-26T11:48:19.427Z,20.37
2018-09-26T11:49:19.362Z,20.4
2018-09-26T11:50:20.224Z,20.4
2018-09-26T11:51:19.308Z,20.39
2018-09-26T11:52:20.491Z,20.37
2018-09-26T11:53:19.272Z,20.35
2018-09-26T11:54:19.556Z,20.35
2018-09-26T11:55:19.509Z,20.37
2018-09-26T11:56:19.760Z,20.35
2018-09-26T11:57:19.519Z,20.37
2018-09-26T11:58:20.079Z,20.35
2018-09-26T11:59:19.598Z,20.37
2018-09-26T12:00:19.536Z,20.33
2018-09-26T12:01:19.348Z,20.33
2018-09-26T12:02:20.454Z,20.33
2018-09-26T12:03:19.248Z,20.33
2018-09-26T12:04:20.218Z,20.32
2018-09-26T12:05:19.365Z,20.33
2018-09-26T12:06:20.472Z,20.3
2018-09-26T12:07:20.065Z,20.3
2018-09-26T12:08:20.523Z,20.32
2018-09-26T12:09:19.356Z,20.32
2018-09-26T12:10:20.376Z,20.33
2018-09-26T12:11:19.611Z,20.35
2018-09-26T12:12:20.284Z,20.35
2018-09-26T12:13:19.382Z,20.35
2018-09-26T12:14:19.410Z,20.33
2018-09-26T12:15:20.113Z,20.35
2018-09-26T12:16:20.240Z,20.36
2018-09-26T12:17:19.709Z,20.36
2018-09-26T12:18:20.252Z,20.37
2018-09-26T12:19:20.251Z,20.4
2018-09-26T12:20:19.743Z,20.42
2018-09-26T12:21:31.110Z,20.43
2018-09-26T12:22:21.043Z,20.46
2018-09-26T12:23:19.346Z,20.48
2018-09-26T12:24:20.188Z,20.47
2018-09-26T12:25:19.965Z,20.46
2018-09-26T12:26:19.351Z,20.47
2018-09-26T12:27:19.334Z,20.46
2018-09-26T12:28:20.075Z,20.47
2018-09-26T12:29:19.265Z,20.47
2018-09-26T12:30:21.407Z,20.44
2018-09-26T12:31:19.489Z,20.44
2018-09-26T12:32:19.156Z,20.46
2018-09-26T12:33:19.333Z,20.44
2018-09-26T12:34:19.938Z,20.44
2018-09-26T12:35:19.256Z,20.44
2018-09-26T12:36:19.923Z,20.46
2018-09-26T12:37:19.282Z,20.43
2018-09-26T12:38:19.315Z,20.43
2018-09-26T12:39:19.227Z,20.44
2018-09-26T12:40:20.406Z,20.44
2018-09-26T12:41:19.172Z,20.42
2018-09-26T12:42:20.608Z,20.39
2018-09-26T12:43:19.219Z,20.42
2018-09-26T12:44:19.187Z,20.4
2018-09-26T12:45:19.365Z,20.42
2018-09-26T12:46:20.338Z,20.43
2018-09-26T12:47:20.029Z,20.46
2018-09-26T12:48:19.926Z,20.43
2018-09-26T12:49:19.366Z,20.39
2018-09-26T12:50:19.432Z,20.43
2018-09-26T12:51:19.162Z,20.43
2018-09-26T12:52:20.191Z,20.44
2018-09-26T12:53:19.246Z,20.46
2018-09-26T12:54:19.500Z,20.44